Time;durP1;ratioP1;P1;durP2;ratioP2;P2;SDS_P1;SDS_P2;PMS_P1;PMS_P2;Temp;Humidity;BMP_temperature;BMP_pressure;BME280_temperature;BME280_humidity;BME280_pressure;Samples;Min_cycle;Max_cycle;Signal;HPM_P1;HPM_P2
2021/12/19 00:02:13;;;;;;;38.03;18.17;;;;;;;2.25;100.00;100069.28;4841953;29;20277;-65
2021/12/19 00:10:26;;;;;;;38.27;16.97;;;;;;;2.34;100.00;100047.44;4836482;29;20276;-66
2021/12/19 00:12:53;;;;;;;39.27;18.17;;;;;;;2.26;100.00;100052.50;4842098;29;20818;-66
2021/12/19 00:15:19;;;;;;;35.00;16.13;;;;;;;2.31;100.00;100053.81;4841996;29;20345;-65
2021/12/19 00:17:44;;;;;;;37.60;17.40;;;;;;;2.25;100.00;100064.00;4841878;29;20273;-65
2021/12/19 00:20:11;;;;;;;36.60;18.53;;;;;;;2.18;100.00;100063.66;4841815;29;20041;-65
2021/12/19 00:22:37;;;;;;;38.73;18.03;;;;;;;2.17;100.00;100057.56;4841547;29;20078;-65
2021/12/19 00:25:04;;;;;;;39.77;18.00;;;;;;;2.06;100.00;100062.84;4841886;29;20284;-65
2021/12/19 00:27:29;;;;;;;38.13;18.17;;;;;;;2.09;100.00;100053.81;4841787;29;20337;-65
2021/12/19 00:29:55;;;;;;;40.33;18.60;;;;;;;2.02;100.00;100053.47;4841834;29;20655;-66
2021/12/19 00:32:21;;;;;;;38.70;18.13;;;;;;;2.07;100.00;100056.59;4841583;29;20062;-66
2021/12/19 00:34:50;;;;;;;40.73;18.03;;;;;;;2.08;100.00;100044.22;4841585;29;20038;-65
2021/12/19 00:37:20;;;;;;;42.80;18.83;;;;;;;2.08;100.00;100042.44;4841562;29;20041;-65
2021/12/19 00:39:46;;;;;;;38.67;18.17;;;;;;;1.96;100.00;100045.22;4841547;29;20319;-65
2021/12/19 00:42:14;;;;;;;40.30;17.67;;;;;;;1.89;100.00;100038.72;4841302;29;20289;-65
2021/12/19 00:44:42;;;;;;;39.53;18.83;;;;;;;1.78;100.00;100029.84;4825188;29;20326;-65
2021/12/19 00:47:08;;;;;;;39.63;17.80;;;;;;;1.94;100.00;100033.94;4841322;29;20329;-66
2021/12/19 00:49:35;;;;;;;38.70;17.67;;;;;;;1.85;100.00;100021.50;4841040;29;20293;-65
2021/12/19 00:52:02;;;;;;;39.20;17.73;;;;;;;1.94;100.00;100023.41;4841383;29;20041;-65
2021/12/19 00:54:31;;;;;;;41.10;17.90;;;;;;;1.96;100.00;100013.59;4840771;29;20273;-65
2021/12/19 00:56:56;;;;;;;38.33;17.93;;;;;;;1.86;100.00;100018.72;4841181;29;20284;-65
2021/12/19 00:59:22;;;;;;;41.07;18.63;;;;;;;1.87;100.00;100024.81;4841250;29;20273;-65
2021/12/19 01:01:48;;;;;;;42.37;18.60;;;;;;;1.84;100.00;100017.19;4841163;29;20040;-66
2021/12/19 01:04:16;;;;;;;40.17;18.33;;;;;;;1.83;100.00;100018.97;4825041;29;20045;-65
2021/12/19 01:06:45;;;;;;;44.20;18.93;;;;;;;1.80;100.00;100020.03;4841187;29;20041;-65
2021/12/19 01:09:11;;;;;;;42.93;17.53;;;;;;;1.71;100.00;100007.59;4824850;29;20269;-66
2021/12/19 01:11:37;;;;;;;43.53;17.70;;;;;;;1.87;100.00;99996.66;4841105;29;20759;-65
2021/12/19 01:14:04;;;;;;;39.93;17.27;;;;;;;1.85;100.00;99987.22;4824580;29;20094;-65
2021/12/19 01:16:30;;;;;;;39.17;18.17;;;;;;;1.79;100.00;99992.00;4840835;29;20356;-66
2021/12/19 01:18:55;;;;;;;46.07;19.83;;;;;;;1.68;100.00;99991.19;4841036;29;20273;-66
2021/12/19 01:21:21;;;;;;;40.67;18.37;;;;;;;1.65;100.00;99986.97;4840960;29;20763;-65
2021/12/19 01:23:47;;;;;;;43.23;19.17;;;;;;;1.79;100.00;100001.72;4809470;29;20511;-66
2021/12/19 01:26:13;;;;;;;40.73;18.33;;;;;;;1.68;100.00;99999.06;4841207;29;20289;-66
2021/12/19 01:28:39;;;;;;;41.27;17.80;;;;;;;1.69;100.00;100004.22;4840899;29;20113;-66
2021/12/19 01:31:05;;;;;;;42.10;17.53;;;;;;;1.58;100.00;99996.31;4840928;29;20094;-66
2021/12/19 01:33:31;;;;;;;42.77;18.53;;;;;;;1.62;100.00;100002.16;4840909;29;20647;-66
2021/12/19 01:35:57;;;;;;;41.90;17.53;;;;;;;1.60;100.00;99989.16;4841077;29;20171;-66
2021/12/19 01:38:22;;;;;;;39.70;17.73;;;;;;;1.58;100.00;99991.06;4840994;29;20392;-66
2021/12/19 01:40:49;;;;;;;42.77;18.30;;;;;;;1.63;100.00;99991.50;4840923;29;20042;-66
2021/12/19 01:43:20;;;;;;;42.37;17.97;;;;;;;1.58;100.00;99982.31;4840846;29;20034;-66
2021/12/19 01:45:46;;;;;;;39.80;17.00;;;;;;;1.60;100.00;99983.03;4840799;29;20278;-65
2021/12/19 01:48:13;;;;;;;39.90;17.63;;;;;;;1.60;100.00;99973.34;4840560;29;20304;-66
2021/12/19 01:50:41;;;;;;;38.00;16.93;;;;;;;1.43;100.00;99971.16;4840640;29;20304;-65
2021/12/19 01:53:11;;;;;;;39.57;17.63;;;;;;;1.51;100.00;99976.66;4840667;29;20265;-66
2021/12/19 01:55:38;;;;;;;43.37;18.17;;;;;;;1.54;100.00;99979.06;4840663;29;20727;-66
2021/12/19 01:58:04;;;;;;;43.97;18.27;;;;;;;1.42;100.00;99980.84;4840508;29;20277;-66
2021/12/19 02:00:33;;;;;;;43.30;18.40;;;;;;;1.64;100.00;99976.56;4840612;29;20273;-66
2021/12/19 02:02:59;;;;;;;43.17;18.70;;;;;;;1.34;100.00;99979.78;4840488;29;20286;-66
2021/12/19 02:05:26;;;;;;;43.50;18.10;;;;;;;1.40;100.00;99972.22;4824160;29;20265;-65
2021/12/19 02:07:53;;;;;;;39.33;17.77;;;;;;;1.48;100.00;99978.72;4827406;29;20269;-66
2021/12/19 02:10:26;;;;;;;41.37;19.20;;;;;;;1.31;100.00;99975.56;4843829;29;20278;-65
2021/12/19 02:12:53;;;;;;;41.40;18.30;;;;;;;1.38;100.00;99981.22;4843934;29;20352;-65
2021/12/19 02:15:21;;;;;;;40.40;16.80;;;;;;;1.29;100.00;99969.56;4843847;29;20485;-66
2021/12/19 02:17:49;;;;;;;43.50;18.10;;;;;;;1.40;100.00;99966.13;4844114;29;20648;-65
2021/12/19 02:20:17;;;;;;;44.90;18.67;;;;;;;1.25;100.00;99962.88;4843783;29;20365;-65
2021/12/19 02:22:44;;;;;;;42.83;18.37;;;;;;;1.40;100.00;99952.94;4843710;29;20033;-66
2021/12/19 02:25:10;;;;;;;50.83;19.30;;;;;;;1.43;100.00;99956.19;4843964;29;20613;-65
2021/12/19 02:27:37;;;;;;;42.30;17.50;;;;;;;1.53;100.00;99952.84;4827279;29;20109;-65
2021/12/19 02:30:07;;;;;;;45.08;17.95;;;;;;;1.53;100.00;99956.31;4843749;29;20277;-66
2021/12/19 02:32:36;;;;;;;42.23;17.70;;;;;;;1.48;100.00;99955.00;4843545;29;20034;-66
2021/12/19 02:35:08;;;;;;;44.70;18.70;;;;;;;1.49;100.00;99948.78;4843642;29;20273;-66
2021/12/19 02:48:27;;;;;;;46.58;18.25;;;;;;;1.50;100.00;99945.19;4803509;29;20703;-66
2021/12/19 02:50:54;;;;;;;40.23;16.33;;;;;;;1.30;100.00;99958.09;4807055;29;20039;-66
2021/12/19 02:53:38;;;;;;;42.87;17.27;;;;;;;1.35;100.00;99950.69;4807038;29;20278;-66
2021/12/19 02:56:07;;;;;;;43.73;17.30;;;;;;;1.54;100.00;99928.19;4806871;29;20266;-66
2021/12/19 02:58:34;;;;;;;46.30;16.98;;;;;;;1.40;100.00;99930.09;4806967;29;20878;-66
2021/12/19 03:01:17;;;;;;;42.63;17.80;;;;;;;1.38;100.00;99928.56;4806728;29;20492;-66
2021/12/19 03:03:43;;;;;;;45.83;18.17;;;;;;;1.37;100.00;99927.72;4806815;29;20702;-66
2021/12/19 03:06:09;;;;;;;44.43;18.53;;;;;;;1.28;100.00;99920.50;4806780;29;20031;-66
2021/12/19 03:08:40;;;;;;;46.70;17.70;;;;;;;1.37;100.00;99916.34;4806763;29;20175;-65
2021/12/19 03:19:14;;;;;;;45.72;17.30;;;;;;;1.30;100.00;99917.75;4805922;29;19974;-66
2021/12/19 03:21:41;;;;;;;48.20;17.13;;;;;;;1.29;100.00;99916.06;4806305;29;20038;-66
2021/12/19 03:24:07;;;;;;;48.60;18.97;;;;;;;1.35;100.00;99911.19;4806328;29;20042;-65
2021/12/19 03:26:33;;;;;;;49.10;18.30;;;;;;;1.30;100.00;99913.31;4806137;29;20733;-66
2021/12/19 03:28:59;;;;;;;49.57;18.33;;;;;;;1.38;100.00;99905.69;4806498;29;20285;-66
2021/12/19 03:31:26;;;;;;;46.63;16.87;;;;;;;1.19;100.00;99905.41;4806624;29;20405;-66
2021/12/19 03:33:51;;;;;;;52.28;17.63;;;;;;;1.17;100.00;99915.22;4789830;29;20408;-66
2021/12/19 03:36:17;;;;;;;51.23;19.23;;;;;;;1.19;100.00;99909.84;4806155;29;20030;-66
2021/12/19 03:38:44;;;;;;;52.70;19.37;;;;;;;1.10;100.00;99900.88;4806306;29;20065;-66
2021/12/19 03:41:18;;;;;;;50.72;17.92;;;;;;;1.04;100.00;99909.22;4805003;29;20027;-66
2021/12/19 03:43:44;;;;;;;49.25;18.95;;;;;;;1.01;100.00;99915.59;4805747;29;20039;-66
2021/12/19 03:46:10;;;;;;;59.58;20.55;;;;;;;1.03;100.00;99900.53;4804588;29;20087;-66
2021/12/19 03:48:36;;;;;;;55.73;19.93;;;;;;;1.05;100.00;99893.31;4823918;29;20453;-66
2021/12/19 03:51:02;;;;;;;56.63;18.30;;;;;;;1.08;100.00;99890.47;4842235;29;20507;-66
2021/12/19 03:53:27;;;;;;;58.20;20.00;;;;;;;1.09;100.00;99884.25;4842236;29;20030;-66
2021/12/19 03:55:53;;;;;;;57.53;19.47;;;;;;;0.98;100.00;99878.97;4826045;29;20049;-65
2021/12/19 03:58:20;;;;;;;65.57;21.77;;;;;;;0.91;100.00;99875.13;4842141;29;20034;-66
2021/12/19 04:00:48;;;;;;;59.80;20.65;;;;;;;0.88;100.00;99871.91;4841926;29;20160;-65
2021/12/19 04:03:19;;;;;;;59.05;21.05;;;;;;;0.90;100.00;99872.63;4824773;29;20072;-66
2021/12/19 04:05:50;;;;;;;62.63;21.00;;;;;;;0.91;100.00;99869.03;4841820;29;20026;-66
2021/12/19 04:08:17;;;;;;;60.50;20.85;;;;;;;0.97;100.00;99881.72;4841927;29;20038;-66
2021/12/19 04:10:42;;;;;;;62.42;21.38;;;;;;;0.89;100.00;99878.84;4841854;29;20108;-66
2021/12/19 04:13:08;;;;;;;54.13;19.63;;;;;;;0.93;100.00;99872.38;4825375;29;20038;-65
2021/12/19 04:15:35;;;;;;;55.67;19.80;;;;;;;0.90;100.00;99868.19;4841670;29;20034;-66
2021/12/19 04:18:01;;;;;;;53.08;19.23;;;;;;;0.88;100.00;99864.00;4841698;29;20037;-66
2021/12/19 04:20:27;;;;;;;55.17;20.48;;;;;;;0.77;100.00;99861.34;4841659;29;20090;-66
2021/12/19 04:22:53;;;;;;;50.20;18.83;;;;;;;0.85;100.00;99856.34;4841441;29;20072;-66
2021/12/19 04:25:20;;;;;;;48.43;17.60;;;;;;;0.88;100.00;99861.38;4841886;29;20033;-66
2021/12/19 04:27:46;;;;;;;45.75;17.25;;;;;;;0.88;100.00;99853.47;4825295;29;20288;-65
2021/12/19 04:30:17;;;;;;;50.53;17.75;;;;;;;0.85;100.00;99846.66;4841010;29;20543;-66
2021/12/19 04:32:46;;;;;;;49.15;18.55;;;;;;;0.84;100.00;99854.66;4841358;29;20031;-66
2021/12/19 04:35:13;;;;;;;53.15;18.30;;;;;;;0.84;100.00;99847.59;4841601;29;20030;-65
2021/12/19 04:40:31;;;;;;;50.45;17.95;;;;;;;0.81;100.00;99847.03;4841529;29;20081;-66
2021/12/19 05:02:00;;;;;;;37.53;15.27;;;;;;;0.96;100.00;99851.09;4825854;29;20101;-65
2021/12/19 05:04:40;;;;;;;39.20;14.90;;;;;;;1.11;100.00;99844.66;4840939;29;20044;-65
2021/12/19 05:15:26;;;;;;;35.13;13.52;;;;;;;1.13;100.00;99853.25;4841044;29;20044;-65
2021/12/19 05:18:00;;;;;;;36.22;13.30;;;;;;;1.14;100.00;99838.31;4841040;29;20407;-66
2021/12/19 05:20:28;;;;;;;38.35;15.52;;;;;;;0.99;100.00;99838.53;4841296;29;20385;-66
2021/12/19 05:23:01;;;;;;;32.97;12.45;;;;;;;1.16;100.00;99841.63;4840819;29;20034;-66
2021/12/19 05:25:26;;;;;;;35.78;13.35;;;;;;;1.22;100.00;99838.53;4840982;29;20082;-66
2021/12/19 05:27:54;;;;;;;38.20;14.40;;;;;;;1.07;100.00;99830.03;4840780;29;20437;-65
2021/12/19 05:30:21;;;;;;;31.27;13.38;;;;;;;1.00;100.00;99834.13;4841033;29;20101;-65
2021/12/19 05:32:49;;;;;;;34.78;14.00;;;;;;;1.14;100.00;99831.25;4824515;29;20082;-65
2021/12/19 05:35:23;;;;;;;36.85;14.65;;;;;;;1.07;100.00;99832.66;4841105;29;20034;-65
2021/12/19 05:46:01;;;;;;;35.15;14.07;;;;;;;1.17;100.00;99825.72;4844491;29;20400;-65
2021/12/19 05:48:27;;;;;;;36.70;13.80;;;;;;;1.13;100.00;99826.09;4824814;29;20046;-66
2021/12/19 05:50:52;;;;;;;35.80;15.30;;;;;;;1.01;100.00;99807.69;4825818;29;20042;-66
2021/12/19 05:53:18;;;;;;;39.20;14.93;;;;;;;1.17;100.00;99809.94;4825782;29;20109;-65
2021/12/19 05:55:43;;;;;;;37.20;13.70;;;;;;;1.13;100.00;99812.94;4825857;29;20452;-65
2021/12/19 05:58:09;;;;;;;35.83;14.50;;;;;;;1.14;100.00;99814.63;4825766;29;20034;-65
2021/12/19 06:00:35;;;;;;;39.70;16.40;;;;;;;1.05;100.00;99805.63;4825944;29;20106;-66
2021/12/19 06:03:02;;;;;;;37.22;14.88;;;;;;;1.08;100.00;99800.97;4825646;29;20022;-66
2021/12/19 06:05:28;;;;;;;38.00;14.10;;;;;;;1.15;100.00;99789.97;4825750;29;20030;-65
2021/12/19 06:07:54;;;;;;;38.83;15.00;;;;;;;0.98;100.00;99789.50;4825565;29;20058;-65
2021/12/19 06:10:20;;;;;;;37.70;15.43;;;;;;;1.08;100.00;99779.06;4825437;29;20053;-66
2021/12/19 06:12:47;;;;;;;41.05;16.02;;;;;;;1.14;100.00;99783.03;4825645;29;20087;-66
2021/12/19 06:15:13;;;;;;;38.90;16.45;;;;;;;1.04;100.00;99793.41;4825568;29;20056;-65
2021/12/19 06:17:41;;;;;;;37.65;16.25;;;;;;;0.92;100.00;99794.41;4809099;29;20555;-65
2021/12/19 06:20:08;;;;;;;38.28;15.18;;;;;;;1.13;100.00;99794.53;4825445;29;20392;-65
2021/12/19 06:22:34;;;;;;;39.25;15.52;;;;;;;1.08;100.00;99787.81;4825519;29;20043;-66
2021/12/19 06:25:04;;;;;;;42.20;15.27;;;;;;;1.17;100.00;99778.34;4825351;29;20404;-66
2021/12/19 06:27:29;;;;;;;41.85;16.35;;;;;;;1.20;100.00;99778.09;4839727;29;20115;-66
2021/12/19 06:29:55;;;;;;;40.33;14.93;;;;;;;1.19;100.00;99784.34;4825237;29;20091;-66
2021/12/19 06:32:20;;;;;;;40.60;15.00;;;;;;;1.11;100.00;99780.63;4825221;29;20422;-65
2021/12/19 06:34:46;;;;;;;38.03;15.87;;;;;;;1.22;100.00;99788.53;4825169;29;20077;-67
2021/12/19 06:37:12;;;;;;;41.27;17.20;;;;;;;1.06;100.00;99780.97;4825276;29;20744;-66
2021/12/19 06:39:38;;;;;;;42.10;16.80;;;;;;;1.13;100.00;99769.03;4825281;29;20106;-66
2021/12/19 06:42:06;;;;;;;45.28;16.70;;;;;;;1.20;100.00;99770.22;4825170;29;20476;-65
2021/12/19 06:44:33;;;;;;;42.70;15.57;;;;;;;1.11;100.00;99768.31;4823971;29;20030;-66
2021/12/19 06:46:59;;;;;;;42.25;16.33;;;;;;;1.26;100.00;99753.94;4823845;29;20042;-66
2021/12/19 06:49:25;;;;;;;39.50;15.60;;;;;;;1.18;100.00;99779.19;4840224;29;20065;-66
2021/12/19 06:51:51;;;;;;;41.17;16.15;;;;;;;1.28;100.00;99773.06;4843282;29;20484;-66
2021/12/19 06:54:17;;;;;;;42.67;16.23;;;;;;;1.20;100.00;99772.84;4842546;29;20074;-66
2021/12/19 06:56:42;;;;;;;39.23;14.97;;;;;;;1.26;100.00;99782.06;4843233;29;20033;-65
2021/12/19 06:59:08;;;;;;;39.67;15.13;;;;;;;1.31;100.00;99764.94;4843196;29;20433;-66
2021/12/19 07:01:36;;;;;;;40.60;16.17;;;;;;;1.23;100.00;99761.25;4826764;29;20114;-66
2021/12/19 07:04:02;;;;;;;43.65;16.50;;;;;;;1.21;100.00;99763.16;4842871;29;20034;-66
2021/12/19 07:06:27;;;;;;;36.53;15.03;;;;;;;1.25;100.00;99783.03;4843119;29;20037;-66
2021/12/19 07:08:53;;;;;;;40.33;16.07;;;;;;;1.31;100.00;99772.81;4842911;29;20104;-65
2021/12/19 07:11:20;;;;;;;39.27;15.07;;;;;;;1.22;100.00;99770.09;4843151;29;20054;-66
2021/12/19 07:13:45;;;;;;;40.63;15.77;;;;;;;1.23;100.00;99766.50;4842693;29;20022;-66
2021/12/19 07:16:11;;;;;;;41.23;15.40;;;;;;;1.32;100.00;99768.41;4842805;29;20038;-66
2021/12/19 07:18:37;;;;;;;34.70;14.13;;;;;;;1.22;100.00;99770.09;4842965;29;20067;-66
2021/12/19 07:21:06;;;;;;;36.53;15.27;;;;;;;1.09;100.00;99767.59;4842663;29;20040;-66
2021/12/19 07:23:32;;;;;;;31.77;13.15;;;;;;;1.29;100.00;99771.28;4842674;29;20034;-65
2021/12/19 07:25:58;;;;;;;39.20;13.87;;;;;;;1.23;100.00;99748.91;4842798;29;20044;-66
2021/12/19 07:28:24;;;;;;;35.45;13.30;;;;;;;1.22;100.00;99763.03;4842686;29;20038;-66
2021/12/19 07:30:50;;;;;;;35.23;13.30;;;;;;;1.30;100.00;99765.03;4842313;29;20396;-65
2021/12/19 07:33:17;;;;;;;35.37;13.20;;;;;;;1.25;100.00;99754.91;4842123;29;20029;-64
2021/12/19 07:35:45;;;;;;;35.03;13.17;;;;;;;1.40;100.00;99755.44;4842168;29;20450;-64
2021/12/19 07:38:22;;;;;;;31.40;12.50;;;;;;;1.26;100.00;99753.94;4842133;29;20773;-66
2021/12/19 07:40:50;;;;;;;33.13;13.05;;;;;;;1.25;100.00;99741.75;4842225;29;20395;-64
2021/12/19 07:43:16;;;;;;;34.10;13.73;;;;;;;1.26;100.00;99739.94;4841896;29;20034;-65
2021/12/19 07:45:43;;;;;;;30.30;11.60;;;;;;;1.11;100.00;99731.47;4841887;29;20484;-66
2021/12/19 07:48:09;;;;;;;34.47;14.05;;;;;;;1.10;100.00;99745.59;4841810;29;20508;-64
2021/12/19 07:50:34;;;;;;;33.95;12.80;;;;;;;1.20;100.00;99746.53;4825537;29;20420;-65
2021/12/19 07:53:01;;;;;;;32.37;11.97;;;;;;;1.08;100.00;99726.44;4842005;29;20050;-68
2021/12/19 07:55:27;;;;;;;33.92;13.48;;;;;;;1.06;100.00;99736.25;4842467;29;20062;-69
2021/12/19 07:57:54;;;;;;;32.63;11.70;;;;;;;1.00;100.00;99729.69;4842267;29;20038;-70
2021/12/19 08:00:20;;;;;;;33.28;12.63;;;;;;;1.06;100.00;99730.97;4842397;29;20038;-69
2021/12/19 08:02:48;;;;;;;28.90;10.35;;;;;;;1.12;100.00;99733.16;4841942;29;20429;-69
2021/12/19 08:05:15;;;;;;;33.45;11.55;;;;;;;1.13;100.00;99721.66;4842154;29;20125;-69
2021/12/19 08:07:43;;;;;;;31.98;11.63;;;;;;;1.11;100.00;99726.19;4842327;29;20133;-67
2021/12/19 08:12:44;;;;;;;27.10;11.13;;;;;;;1.12;100.00;99716.50;4826809;29;20026;-68
2021/12/19 08:15:11;;;;;;;28.02;11.57;;;;;;;0.99;100.00;99717.50;4842719;29;20081;-70
2021/12/19 08:17:37;;;;;;;27.35;11.50;;;;;;;1.12;100.00;99727.03;4842876;29;20041;-69
2021/12/19 08:20:05;;;;;;;29.80;10.83;;;;;;;1.22;100.00;99735.88;4842769;29;20037;-69
2021/12/19 08:22:32;;;;;;;30.90;11.18;;;;;;;1.07;100.00;99725.59;4839019;29;20480;-68
2021/12/19 08:24:59;;;;;;;27.02;10.70;;;;;;;1.11;100.00;99734.09;4824139;29;20031;-73
2021/12/19 08:27:26;;;;;;;29.83;11.20;;;;;;;1.14;100.00;99718.06;4823090;29;20181;-68
2021/12/19 08:29:53;;;;;;;25.02;9.90;;;;;;;1.08;100.00;99718.53;4824517;29;20066;-69
2021/12/19 08:32:19;;;;;;;24.55;10.25;;;;;;;1.08;100.00;99703.59;4824087;29;20141;-68
2021/12/19 08:34:45;;;;;;;24.10;9.77;;;;;;;1.12;100.00;99711.25;4822634;29;20115;-67
2021/12/19 08:37:11;;;;;;;25.50;10.43;;;;;;;1.15;100.00;99701.31;4807543;29;20116;-71
2021/12/19 08:39:38;;;;;;;29.30;11.20;;;;;;;1.18;100.00;99701.06;4822368;29;20488;-68
2021/12/19 08:42:06;;;;;;;28.25;10.40;;;;;;;1.21;100.00;99695.53;4823339;29;20038;-73
2021/12/19 08:44:32;;;;;;;25.23;9.93;;;;;;;1.05;100.00;99697.72;4821986;29;20030;-70
2021/12/19 08:46:58;;;;;;;34.22;13.32;;;;;;;1.20;100.00;99701.78;4822981;29;20514;-70
2021/12/19 08:49:23;;;;;;;28.93;10.80;;;;;;;1.16;100.00;99688.97;4823305;29;20062;-71
2021/12/19 08:51:49;;;;;;;26.33;10.33;;;;;;;1.17;100.00;99683.59;4823040;29;20477;-70
2021/12/19 08:54:16;;;;;;;29.57;11.73;;;;;;;1.16;100.00;99681.06;4823079;29;20079;-70
2021/12/19 08:56:41;;;;;;;25.63;10.18;;;;;;;1.29;100.00;99693.13;4823238;29;20034;-70
2021/12/19 08:59:10;;;;;;;26.83;9.87;;;;;;;1.14;100.00;99680.38;4823148;29;20536;-70
2021/12/19 09:01:36;;;;;;;24.00;9.45;;;;;;;1.20;100.00;99679.88;4806395;29;20508;-70
2021/12/19 09:04:02;;;;;;;24.98;9.80;;;;;;;1.24;100.00;99674.25;4822818;29;20042;-67
2021/12/19 09:06:27;;;;;;;23.53;9.87;;;;;;;1.21;100.00;99671.84;4823441;29;20030;-68
2021/12/19 09:08:54;;;;;;;21.17;9.07;;;;;;;1.38;100.00;99665.22;4806625;29;20086;-68
2021/12/19 09:11:20;;;;;;;24.58;9.50;;;;;;;1.43;100.00;99673.56;4823173;29;20054;-70
2021/12/19 09:13:46;;;;;;;23.92;9.93;;;;;;;1.54;100.00;99670.06;4822695;29;20038;-69
2021/12/19 09:16:12;;;;;;;20.00;8.65;;;;;;;1.35;100.00;99665.47;4807623;29;20087;-68
2021/12/19 09:18:37;;;;;;;20.47;8.87;;;;;;;1.34;100.00;99667.28;4823045;29;20446;-67
2021/12/19 09:21:04;;;;;;;21.03;8.77;;;;;;;1.48;100.00;99657.41;4823548;29;20159;-69
2021/12/19 09:23:29;;;;;;;22.50;8.82;;;;;;;1.40;100.00;99671.19;4822717;29;20401;-71
2021/12/19 09:25:55;;;;;;;24.13;9.10;;;;;;;1.43;100.00;99660.41;4822684;29;20035;-70
2021/12/19 09:28:20;;;;;;;20.50;8.17;;;;;;;1.61;100.00;99647.53;4822476;29;20045;-70
2021/12/19 11:28:28;;;;;;;10.70;5.40;;;;;;;3.01;100.00;99414.47;4780456;30;20310;-63
2021/12/19 11:30:54;;;;;;;9.80;5.77;;;;;;;2.87;100.00;99396.47;4786060;30;20291;-64
2021/12/19 11:33:32;;;;;;;9.97;5.67;;;;;;;2.80;100.00;99401.47;4786119;30;20279;-62
2021/12/19 11:35:58;;;;;;;11.73;6.00;;;;;;;2.97;100.00;99399.91;4787687;30;20038;-63
2021/12/19 11:38:24;;;;;;;10.23;6.13;;;;;;;2.72;100.00;99398.69;4780165;30;21101;-69
2021/12/19 11:40:51;;;;;;;11.60;6.27;;;;;;;2.72;100.00;99388.13;4753164;30;20280;-70
2021/12/19 11:43:18;;;;;;;13.20;6.37;;;;;;;2.72;100.00;99397.88;4753774;30;20055;-71
2021/12/19 11:45:56;;;;;;;12.10;6.20;;;;;;;2.73;100.00;99400.38;4753541;30;20757;-69
2021/12/19 11:48:29;;;;;;;11.80;6.10;;;;;;;2.82;100.00;99404.78;4755018;30;20284;-71
2021/12/19 11:50:57;;;;;;;10.70;5.47;;;;;;;2.82;100.00;99398.69;4769648;30;20711;-71
2021/12/19 11:53:32;;;;;;;12.10;5.57;;;;;;;2.78;100.00;99392.00;4768238;30;20605;-71
2021/12/19 11:56:09;;;;;;;11.67;5.80;;;;;;;2.67;100.00;99379.81;4769438;30;20280;-71
2021/12/19 11:58:45;;;;;;;10.33;5.73;;;;;;;2.75;100.00;99377.31;4769213;30;20375;-70
2021/12/19 12:01:19;;;;;;;10.17;5.50;;;;;;;2.60;100.00;99357.59;4768239;30;20671;-71
2021/12/19 12:03:47;;;;;;;10.37;5.70;;;;;;;2.55;100.00;99350.09;4769453;30;20710;-71
2021/12/19 12:06:23;;;;;;;10.13;5.23;;;;;;;2.70;100.00;99353.16;4769077;30;20333;-71
2021/12/19 12:09:07;;;;;;;9.27;5.07;;;;;;;2.44;100.00;99352.88;4769235;30;20260;-70
2021/12/19 12:11:34;;;;;;;8.90;4.57;;;;;;;2.75;100.00;99350.94;4769149;30;20280;-71
2021/12/19 12:14:20;;;;;;;10.23;5.03;;;;;;;2.43;100.00;99350.38;4782096;30;20044;-71
2021/12/19 12:16:58;;;;;;;9.53;5.00;;;;;;;2.57;100.00;99344.69;4769161;30;20295;-70
2021/12/19 12:19:50;;;;;;;9.10;4.70;;;;;;;2.36;100.00;99349.28;4768959;30;20287;-71
2021/12/19 12:25:23;;;;;;;9.77;4.93;;;;;;;2.51;100.00;99339.97;4769158;30;20774;-66
2021/12/19 12:27:55;;;;;;;9.77;5.13;;;;;;;2.26;100.00;99335.28;4769042;30;20371;-67
2021/12/19 12:30:29;;;;;;;8.87;4.83;;;;;;;2.49;100.00;99329.56;4767765;30;20827;-66
2021/12/19 12:32:56;;;;;;;9.63;4.80;;;;;;;2.65;100.00;99328.16;4768975;30;20308;-66
2021/12/19 12:35:23;;;;;;;9.40;4.87;;;;;;;2.47;100.00;99317.50;4767911;30;20032;-67
2021/12/19 12:37:51;;;;;;;9.57;5.00;;;;;;;2.30;100.00;99324.31;4752990;30;20310;-66
2021/12/19 12:40:42;;;;;;;9.77;5.20;;;;;;;2.40;100.00;99327.78;4769114;30;20323;-67
2021/12/19 12:43:10;;;;;;;10.63;5.23;;;;;;;2.50;100.00;99317.22;4768938;30;20355;-67
2021/12/19 12:45:56;;;;;;;11.30;5.27;;;;;;;2.40;100.00;99306.69;4772408;30;20812;-67
2021/12/19 12:48:32;;;;;;;11.23;5.50;;;;;;;2.60;100.00;99299.56;4782510;30;20272;-67
2021/12/19 12:51:00;;;;;;;10.67;5.43;;;;;;;2.64;100.00;99298.31;4768156;30;20861;-66
2021/12/19 12:53:50;;;;;;;9.73;5.13;;;;;;;2.62;100.00;99297.63;4768564;30;20272;-66
2021/12/19 12:56:19;;;;;;;10.13;5.37;;;;;;;2.54;100.00;99290.41;4768610;30;20275;-67
2021/12/19 12:58:48;;;;;;;9.47;4.83;;;;;;;2.48;100.00;99283.06;4768520;30;20693;-67
2021/12/19 13:01:23;;;;;;;10.77;5.37;;;;;;;2.49;100.00;99271.53;4768461;30;20748;-66
2021/12/19 13:03:56;;;;;;;10.47;5.50;;;;;;;2.44;100.00;99268.47;4768356;30;20378;-66
2021/12/19 13:07:03;;;;;;;9.82;5.05;;;;;;;2.54;100.00;99260.53;4768420;30;20809;-67
2021/12/19 13:09:36;;;;;;;11.10;5.77;;;;;;;2.68;100.00;99272.47;4730617;30;20048;-66
2021/12/19 13:12:07;;;;;;;11.93;5.93;;;;;;;2.55;100.00;99275.41;4730766;30;20372;-67
2021/12/19 13:14:45;;;;;;;10.90;5.30;;;;;;;2.44;100.00;99276.41;4745325;30;20349;-67
2021/12/19 13:17:18;;;;;;;11.17;6.10;;;;;;;2.48;100.00;99272.50;4730794;30;20278;-65
2021/12/19 13:19:46;;;;;;;11.63;5.80;;;;;;;3.00;100.00;99269.47;4746202;30;20285;-58
2021/12/19 13:22:18;;;;;;;11.77;6.13;;;;;;;2.83;100.00;99279.78;4748272;30;20365;-69
2021/12/19 13:24:45;;;;;;;10.07;5.30;;;;;;;2.62;100.00;99273.88;4733869;30;20293;-66
2021/12/19 13:27:14;;;;;;;13.00;6.60;;;;;;;2.62;100.00;99271.25;4723633;30;20292;-69
2021/12/19 13:29:41;;;;;;;11.63;6.80;;;;;;;2.71;100.00;99259.00;4747749;30;20355;-69
2021/12/19 13:32:29;;;;;;;10.60;6.17;;;;;;;2.37;100.00;99269.19;4732304;30;20309;-67
2021/12/19 13:34:55;;;;;;;9.80;5.70;;;;;;;2.27;100.00;99265.75;4747790;30;20276;-69
2021/12/19 13:37:22;;;;;;;12.90;6.50;;;;;;;2.33;100.00;99263.38;4747525;30;20619;-69
2021/12/19 13:40:17;;;;;;;12.47;6.57;;;;;;;2.43;100.00;99260.72;4747583;30;20287;-69
2021/12/19 13:42:52;;;;;;;12.30;6.27;;;;;;;2.22;100.00;99244.22;4730472;30;20301;-69
2021/12/19 13:45:31;;;;;;;12.53;6.60;;;;;;;2.17;100.00;99245.50;4727393;30;20285;-69
2021/12/19 13:48:00;;;;;;;10.97;6.47;;;;;;;2.34;100.00;99246.56;4748002;30;20954;-69
2021/12/19 13:50:27;;;;;;;11.93;6.90;;;;;;;2.46;100.00;99231.41;4748140;30;20285;-69
2021/12/19 13:52:53;;;;;;;11.63;6.63;;;;;;;2.34;100.00;99238.66;4733530;30;20445;-69
2021/12/19 13:55:19;;;;;;;11.47;6.20;;;;;;;2.07;100.00;99244.69;4748201;30;20288;-69
2021/12/19 13:57:45;;;;;;;13.33;7.00;;;;;;;2.35;100.00;99242.97;4748129;30;20077;-69
2021/12/19 14:00:28;;;;;;;13.70;7.43;;;;;;;2.45;100.00;99243.78;4748038;30;20085;-69
2021/12/19 14:02:54;;;;;;;12.70;7.03;;;;;;;2.49;100.00;99252.25;4750105;30;20299;-67
2021/12/19 14:05:29;;;;;;;17.10;9.00;;;;;;;2.55;100.00;99247.22;4751544;30;20281;-69
2021/12/19 14:07:55;;;;;;;10.33;6.03;;;;;;;2.25;100.00;99251.88;4751598;30;20071;-69
2021/12/19 14:10:22;;;;;;;13.80;7.00;;;;;;;2.31;100.00;99236.31;4730209;30;20292;-68
2021/12/19 14:13:29;;;;;;;12.37;7.13;;;;;;;2.28;100.00;99241.88;4733385;30;20368;-68
2021/12/19 14:15:50;;;;;;;12.40;7.50;;;;;;;2.36;100.00;99249.06;4731867;30;20297;-68
2021/12/19 14:18:28;;;;;;;13.27;7.60;;;;;;;2.40;100.00;99235.47;4736651;30;20277;-69
2021/12/19 14:20:53;;;;;;;16.70;9.00;;;;;;;2.36;100.00;99238.53;4767314;30;20276;-69
2021/12/19 14:23:20;;;;;;;14.33;7.60;;;;;;;2.30;100.00;99234.66;4753191;30;20552;-70
2021/12/19 14:25:47;;;;;;;12.83;7.23;;;;;;;2.53;100.00;99232.53;4753994;30;20028;-70
2021/12/19 14:28:22;;;;;;;13.90;7.70;;;;;;;2.40;100.00;99239.91;4766701;30;20308;-69
2021/12/19 14:30:56;;;;;;;14.90;7.87;;;;;;;2.31;100.00;99246.06;4753349;30;20280;-69
2021/12/19 14:33:37;;;;;;;15.20;8.30;;;;;;;2.17;100.00;99240.25;4762791;30;20276;-70